Flight Track Log - Related Links

Times and Time Zones

All times are in EDT time to prevent confusion due to time zone crossing. See the N521PM flight status page for this flight to view local times or setup timezone preferences in your user account.

Time Position Orientation Groundspeed Altitude Reporting Facility
EDT Latitude Longitude Course Direction KTS MPH feet Rate Location/Type
Wed 11:13:58 PM 41.7333 -87.7167 180° South 198 228 3,000  Level Chicago TRACON
Wed 11:15:04 PM 41.6667 -87.7333 191° South 194 223 4,600 1,391 Climbing Chicago TRACON
Wed 11:16:16 PM 41.6047 -87.7464 189° South 198 228 6,200 1,534 Climbing Chicago Center
Wed 11:17:17 PM 41.5494 -87.7522 185° South 200 230 8,000 1,623 Climbing Chicago Center
Wed 11:18:00 PM 41.4786 -87.7667 180° South  Level FlightAware Approximate
Wed 11:18:18 PM 41.4978 -87.7594 186° South 189 217 9,500  Level Chicago Center
Wed 11:19:19 PM 41.4411 -87.7675 186° South 202 232 10,100 295 Climbing Chicago Center
Wed 11:20:20 PM 41.3758 -87.7775 187° South 231 266 10,100  Level Chicago Center
Wed 11:21:22 PM 41.3208 -87.8231 212° Southwest 235 270 10,100 829 Level Chicago Center
Wed 11:22:23 PM 41.2750 -87.8711 218° Southwest 210 242 11,800 836 Climbing Chicago Center
Wed 11:23:24 PM 41.2139 -87.8853 190° South 224 258 11,800 148 Level Chicago Center
Wed 11:24:25 PM 41.1492 -87.8992 189° South 236 272 12,100 146 Climbing Chicago Center
Wed 11:25:27 PM 41.0811 -87.9181 192° South 248 285 12,100  Level Chicago Center
Wed 11:26:28 PM 41.0128 -87.9372 192° South 252 290 12,100  Level Chicago Center
Wed 11:27:29 PM 40.9294 -87.9550 189° South 253 291 12,100  Level Chicago Center
Wed 11:28:30 PM 40.8603 -87.9706 190° South 253 291 12,100  Level Chicago Center
Wed 11:29:31 PM 40.7897 -87.9853 189° South 256 295 12,100  Level Chicago Center
Wed 11:30:32 PM 40.7206 -88.0011 190° South 254 292 12,100  Level Chicago Center
Wed 11:31:33 PM 40.6514 -88.0153 189° South 252 290 12,100  Level Chicago Center
Wed 11:32:34 PM 40.5822 -88.0325 191° South 254 292 12,100  Level Chicago Center
Wed 11:33:36 PM 40.5131 -88.0486 190° South 254 292 12,100  Level Chicago Center
Wed 11:34:37 PM 40.4442 -88.0639 190° South 252 290 12,100  Level Chicago Center
Wed 11:35:38 PM 40.3756 -88.0786 189° South 252 290 12,100  Level Chicago Center
Wed 11:36:39 PM 40.2922 -88.0983 190° South 254 292 12,100  Level Chicago Center
Wed 11:37:40 PM 40.2233 -88.1142 190° South 254 292 12,100  Level Chicago Center
Wed 11:38:41 PM 40.1542 -88.1292 189° South 255 293 12,100  Level Chicago Center
Wed 11:39:42 PM 40.0828 -88.1306 181° South 259 298 12,100 -295 Level Chicago Center
Wed 11:40:43 PM 40.0128 -88.1364 184° South 253 291 11,500 -495 Descending Chicago Center
Wed 11:41:31 PM 39.9614 -88.1408 184° South 246 283 11,200 -375 Descending Chicago Center

Login

Don't have an account? Register now (free) for customized features, flight alerts, and more!